<?xml version="1.0" encoding="UTF-8" ?>
<gpx version="1.1" xmlns:xsi="http://www.w3.org/2001/XMLSchema-instance" 
    xmlns="http://www.topografix.com/GPX/1/1" 
    xsi:schemaLocation="http://www.topografix.com/GPX/1/1 http://www.topografix.com/GPX/1/1/gpx.xsd" 
    creator="Openrunner - https://www.openrunner.com" >	<trk>
						<name>Crête de Romanin-20257321</name>
						<trkseg>
					<trkpt lat="43.757010" lon="4.924350">
						<ele>121</ele>
						<time>2024-11-14T21:30:23Z</time>
					</trkpt>
					<trkpt lat="43.757110" lon="4.924210">
						<ele>120</ele>
						<time>2024-11-14T21:30:42Z</time>
					</trkpt>
					<trkpt lat="43.757230" lon="4.924140">
						<ele>120</ele>
						<time>2024-11-14T21:30:59Z</time>
					</trkpt>
					<trkpt lat="43.757600" lon="4.923730">
						<ele>119</ele>
						<time>2024-11-14T21:32:03Z</time>
					</trkpt>
					<trkpt lat="43.757850" lon="4.922900">
						<ele>125</ele>
						<time>2024-11-14T21:33:29Z</time>
					</trkpt>
					<trkpt lat="43.758500" lon="4.921930">
						<ele>122</ele>
						<time>2024-11-14T21:35:37Z</time>
					</trkpt>
					<trkpt lat="43.758590" lon="4.921700">
						<ele>122</ele>
						<time>2024-11-14T21:36:02Z</time>
					</trkpt>
					<trkpt lat="43.759140" lon="4.920790">
						<ele>122</ele>
						<time>2024-11-14T21:37:56Z</time>
					</trkpt>
					<trkpt lat="43.759520" lon="4.920400">
						<ele>122</ele>
						<time>2024-11-14T21:39:00Z</time>
					</trkpt>
					<trkpt lat="43.759720" lon="4.920090">
						<ele>124</ele>
						<time>2024-11-14T21:39:40Z</time>
					</trkpt>
					<trkpt lat="43.760230" lon="4.919510">
						<ele>123</ele>
						<time>2024-11-14T21:41:08Z</time>
					</trkpt>
					<trkpt lat="43.760490" lon="4.918980">
						<ele>123</ele>
						<time>2024-11-14T21:42:09Z</time>
					</trkpt>
					<trkpt lat="43.761040" lon="4.918090">
						<ele>123</ele>
						<time>2024-11-14T21:44:02Z</time>
					</trkpt>
					<trkpt lat="43.761120" lon="4.918020">
						<ele>123</ele>
						<time>2024-11-14T21:44:15Z</time>
					</trkpt>
					<trkpt lat="43.761880" lon="4.916880">
						<ele>122</ele>
						<time>2024-11-14T21:46:44Z</time>
					</trkpt>
					<trkpt lat="43.762360" lon="4.916440">
						<ele>122</ele>
						<time>2024-11-14T21:48:01Z</time>
					</trkpt>
					<trkpt lat="43.762650" lon="4.915920">
						<ele>123</ele>
						<time>2024-11-14T21:49:05Z</time>
					</trkpt>
					<trkpt lat="43.762760" lon="4.915440">
						<ele>123</ele>
						<time>2024-11-14T21:49:53Z</time>
					</trkpt>
					<trkpt lat="43.762710" lon="4.914540">
						<ele>125</ele>
						<time>2024-11-14T21:51:20Z</time>
					</trkpt>
					<trkpt lat="43.762630" lon="4.914180">
						<ele>126</ele>
						<time>2024-11-14T21:51:56Z</time>
					</trkpt>
					<trkpt lat="43.762650" lon="4.913920">
						<ele>127</ele>
						<time>2024-11-14T21:52:22Z</time>
					</trkpt>
					<trkpt lat="43.762800" lon="4.913040">
						<ele>128</ele>
						<time>2024-11-14T21:53:49Z</time>
					</trkpt>
					<trkpt lat="43.763130" lon="4.912100">
						<ele>129</ele>
						<time>2024-11-14T21:55:29Z</time>
					</trkpt>
					<trkpt lat="43.763280" lon="4.911460">
						<ele>129</ele>
						<time>2024-11-14T21:56:34Z</time>
					</trkpt>
					<trkpt lat="43.763310" lon="4.911200">
						<ele>129</ele>
						<time>2024-11-14T21:57:00Z</time>
					</trkpt>
					<trkpt lat="43.763260" lon="4.910690">
						<ele>129</ele>
						<time>2024-11-14T21:57:49Z</time>
					</trkpt>
					<trkpt lat="43.763270" lon="4.910180">
						<ele>130</ele>
						<time>2024-11-14T21:58:38Z</time>
					</trkpt>
					<trkpt lat="43.763520" lon="4.909340">
						<ele>131</ele>
						<time>2024-11-14T22:00:06Z</time>
					</trkpt>
					<trkpt lat="43.764050" lon="4.908240">
						<ele>130</ele>
						<time>2024-11-14T22:02:13Z</time>
					</trkpt>
					<trkpt lat="43.764260" lon="4.907520">
						<ele>130</ele>
						<time>2024-11-14T22:03:28Z</time>
					</trkpt>
					<trkpt lat="43.764390" lon="4.906900">
						<ele>130</ele>
						<time>2024-11-14T22:04:31Z</time>
					</trkpt>
					<trkpt lat="43.764660" lon="4.906040">
						<ele>129</ele>
						<time>2024-11-14T22:06:01Z</time>
					</trkpt>
					<trkpt lat="43.764760" lon="4.905540">
						<ele>128</ele>
						<time>2024-11-14T22:06:51Z</time>
					</trkpt>
					<trkpt lat="43.764870" lon="4.904270">
						<ele>124</ele>
						<time>2024-11-14T22:08:54Z</time>
					</trkpt>
					<trkpt lat="43.765110" lon="4.903050">
						<ele>123</ele>
						<time>2024-11-14T22:10:56Z</time>
					</trkpt>
					<trkpt lat="43.765460" lon="4.901970">
						<ele>125</ele>
						<time>2024-11-14T22:12:50Z</time>
					</trkpt>
					<trkpt lat="43.765940" lon="4.900260">
						<ele>127</ele>
						<time>2024-11-14T22:15:47Z</time>
					</trkpt>
					<trkpt lat="43.766120" lon="4.899790">
						<ele>127</ele>
						<time>2024-11-14T22:16:38Z</time>
					</trkpt>
					<trkpt lat="43.766190" lon="4.899420">
						<ele>127</ele>
						<time>2024-11-14T22:17:15Z</time>
					</trkpt>
					<trkpt lat="43.766160" lon="4.899320">
						<ele>127</ele>
						<time>2024-11-14T22:17:25Z</time>
					</trkpt>
					<trkpt lat="43.766080" lon="4.899270">
						<ele>127</ele>
						<time>2024-11-14T22:17:37Z</time>
					</trkpt>
					<trkpt lat="43.764370" lon="4.898580">
						<ele>138</ele>
						<time>2024-11-14T22:21:35Z</time>
					</trkpt>
					<trkpt lat="43.764300" lon="4.898510">
						<ele>139</ele>
						<time>2024-11-14T22:21:46Z</time>
					</trkpt>
					<trkpt lat="43.764250" lon="4.898160">
						<ele>138</ele>
						<time>2024-11-14T22:22:21Z</time>
					</trkpt>
					<trkpt lat="43.764170" lon="4.897930">
						<ele>138</ele>
						<time>2024-11-14T22:22:45Z</time>
					</trkpt>
					<trkpt lat="43.763900" lon="4.897590">
						<ele>138</ele>
						<time>2024-11-14T22:23:34Z</time>
					</trkpt>
					<trkpt lat="43.763730" lon="4.897490">
						<ele>140</ele>
						<time>2024-11-14T22:23:59Z</time>
					</trkpt>
					<trkpt lat="43.763550" lon="4.897500">
						<ele>142</ele>
						<time>2024-11-14T22:24:23Z</time>
					</trkpt>
					<trkpt lat="43.763210" lon="4.897720">
						<ele>148</ele>
						<time>2024-11-14T22:25:13Z</time>
					</trkpt>
					<trkpt lat="43.763030" lon="4.897800">
						<ele>151</ele>
						<time>2024-11-14T22:25:38Z</time>
					</trkpt>
					<trkpt lat="43.762840" lon="4.897820">
						<ele>155</ele>
						<time>2024-11-14T22:26:04Z</time>
					</trkpt>
					<trkpt lat="43.762760" lon="4.897760">
						<ele>156</ele>
						<time>2024-11-14T22:26:16Z</time>
					</trkpt>
					<trkpt lat="43.762620" lon="4.897430">
						<ele>158</ele>
						<time>2024-11-14T22:26:53Z</time>
					</trkpt>
					<trkpt lat="43.762380" lon="4.897260">
						<ele>166</ele>
						<time>2024-11-14T22:27:29Z</time>
					</trkpt>
					<trkpt lat="43.762110" lon="4.897210">
						<ele>176</ele>
						<time>2024-11-14T22:28:05Z</time>
					</trkpt>
					<trkpt lat="43.761670" lon="4.897030">
						<ele>191</ele>
						<time>2024-11-14T22:29:06Z</time>
					</trkpt>
					<trkpt lat="43.761250" lon="4.897110">
						<ele>211</ele>
						<time>2024-11-14T22:30:03Z</time>
					</trkpt>
					<trkpt lat="43.761140" lon="4.897090">
						<ele>216</ele>
						<time>2024-11-14T22:30:17Z</time>
					</trkpt>
					<trkpt lat="43.761120" lon="4.896910">
						<ele>217</ele>
						<time>2024-11-14T22:30:35Z</time>
					</trkpt>
					<trkpt lat="43.761050" lon="4.896870">
						<ele>221</ele>
						<time>2024-11-14T22:30:45Z</time>
					</trkpt>
					<trkpt lat="43.760800" lon="4.896950">
						<ele>232</ele>
						<time>2024-11-14T22:31:19Z</time>
					</trkpt>
					<trkpt lat="43.760650" lon="4.896870">
						<ele>238</ele>
						<time>2024-11-14T22:31:41Z</time>
					</trkpt>
					<trkpt lat="43.760270" lon="4.896860">
						<ele>251</ele>
						<time>2024-11-14T22:32:32Z</time>
					</trkpt>
					<trkpt lat="43.759990" lon="4.896740">
						<ele>261</ele>
						<time>2024-11-14T22:33:11Z</time>
					</trkpt>
					<trkpt lat="43.759800" lon="4.896770">
						<ele>258</ele>
						<time>2024-11-14T22:33:36Z</time>
					</trkpt>
					<trkpt lat="43.759720" lon="4.896720">
						<ele>257</ele>
						<time>2024-11-14T22:33:48Z</time>
					</trkpt>
					<trkpt lat="43.759620" lon="4.896530">
						<ele>259</ele>
						<time>2024-11-14T22:34:11Z</time>
					</trkpt>
					<trkpt lat="43.759600" lon="4.896280">
						<ele>264</ele>
						<time>2024-11-14T22:34:35Z</time>
					</trkpt>
					<trkpt lat="43.759490" lon="4.896080">
						<ele>266</ele>
						<time>2024-11-14T22:34:59Z</time>
					</trkpt>
					<trkpt lat="43.759310" lon="4.895090">
						<ele>280</ele>
						<time>2024-11-14T22:36:37Z</time>
					</trkpt>
					<trkpt lat="43.759140" lon="4.894790">
						<ele>280</ele>
						<time>2024-11-14T22:37:14Z</time>
					</trkpt>
					<trkpt lat="43.759130" lon="4.894680">
						<ele>281</ele>
						<time>2024-11-14T22:37:25Z</time>
					</trkpt>
					<trkpt lat="43.759220" lon="4.894350">
						<ele>289</ele>
						<time>2024-11-14T22:37:59Z</time>
					</trkpt>
					<trkpt lat="43.759210" lon="4.894220">
						<ele>291</ele>
						<time>2024-11-14T22:38:11Z</time>
					</trkpt>
					<trkpt lat="43.759050" lon="4.893620">
						<ele>290</ele>
						<time>2024-11-14T22:39:13Z</time>
					</trkpt>
					<trkpt lat="43.758850" lon="4.892410">
						<ele>285</ele>
						<time>2024-11-14T22:41:13Z</time>
					</trkpt>
					<trkpt lat="43.758820" lon="4.892020">
						<ele>285</ele>
						<time>2024-11-14T22:41:51Z</time>
					</trkpt>
					<trkpt lat="43.759060" lon="4.891330">
						<ele>295</ele>
						<time>2024-11-14T22:43:04Z</time>
					</trkpt>
					<trkpt lat="43.759120" lon="4.890960">
						<ele>297</ele>
						<time>2024-11-14T22:43:41Z</time>
					</trkpt>
					<trkpt lat="43.759210" lon="4.890750">
						<ele>299</ele>
						<time>2024-11-14T22:44:04Z</time>
					</trkpt>
					<trkpt lat="43.759220" lon="4.889980">
						<ele>307</ele>
						<time>2024-11-14T22:45:19Z</time>
					</trkpt>
					<trkpt lat="43.759150" lon="4.889350">
						<ele>315</ele>
						<time>2024-11-14T22:46:20Z</time>
					</trkpt>
					<trkpt lat="43.759040" lon="4.889020">
						<ele>314</ele>
						<time>2024-11-14T22:46:55Z</time>
					</trkpt>
					<trkpt lat="43.759040" lon="4.888510">
						<ele>313</ele>
						<time>2024-11-14T22:47:44Z</time>
					</trkpt>
					<trkpt lat="43.758960" lon="4.887890">
						<ele>310</ele>
						<time>2024-11-14T22:48:45Z</time>
					</trkpt>
					<trkpt lat="43.758850" lon="4.887430">
						<ele>305</ele>
						<time>2024-11-14T22:49:32Z</time>
					</trkpt>
					<trkpt lat="43.758890" lon="4.887060">
						<ele>306</ele>
						<time>2024-11-14T22:50:08Z</time>
					</trkpt>
					<trkpt lat="43.758780" lon="4.886710">
						<ele>301</ele>
						<time>2024-11-14T22:50:45Z</time>
					</trkpt>
					<trkpt lat="43.758800" lon="4.885950">
						<ele>302</ele>
						<time>2024-11-14T22:51:58Z</time>
					</trkpt>
					<trkpt lat="43.758750" lon="4.885870">
						<ele>300</ele>
						<time>2024-11-14T22:52:08Z</time>
					</trkpt>
					<trkpt lat="43.758590" lon="4.885780">
						<ele>295</ele>
						<time>2024-11-14T22:52:31Z</time>
					</trkpt>
					<trkpt lat="43.758470" lon="4.885350">
						<ele>293</ele>
						<time>2024-11-14T22:53:16Z</time>
					</trkpt>
					<trkpt lat="43.758150" lon="4.885280">
						<ele>288</ele>
						<time>2024-11-14T22:53:59Z</time>
					</trkpt>
					<trkpt lat="43.758110" lon="4.885190">
						<ele>288</ele>
						<time>2024-11-14T22:54:09Z</time>
					</trkpt>
					<trkpt lat="43.758090" lon="4.884700">
						<ele>291</ele>
						<time>2024-11-14T22:54:56Z</time>
					</trkpt>
					<trkpt lat="43.757870" lon="4.884280">
						<ele>294</ele>
						<time>2024-11-14T22:55:46Z</time>
					</trkpt>
					<trkpt lat="43.757810" lon="4.883760">
						<ele>299</ele>
						<time>2024-11-14T22:56:37Z</time>
					</trkpt>
					<trkpt lat="43.757670" lon="4.883280">
						<ele>304</ele>
						<time>2024-11-14T22:57:27Z</time>
					</trkpt>
					<trkpt lat="43.757530" lon="4.882540">
						<ele>308</ele>
						<time>2024-11-14T22:58:41Z</time>
					</trkpt>
					<trkpt lat="43.757560" lon="4.881510">
						<ele>301</ele>
						<time>2024-11-14T23:00:20Z</time>
					</trkpt>
					<trkpt lat="43.757510" lon="4.880460">
						<ele>287</ele>
						<time>2024-11-14T23:02:01Z</time>
					</trkpt>
					<trkpt lat="43.757580" lon="4.879300">
						<ele>275</ele>
						<time>2024-11-14T23:03:54Z</time>
					</trkpt>
					<trkpt lat="43.757470" lon="4.877730">
						<ele>263</ele>
						<time>2024-11-14T23:06:26Z</time>
					</trkpt>
					<trkpt lat="43.757470" lon="4.876680">
						<ele>259</ele>
						<time>2024-11-14T23:08:07Z</time>
					</trkpt>
					<trkpt lat="43.757660" lon="4.874990">
						<ele>260</ele>
						<time>2024-11-14T23:10:52Z</time>
					</trkpt>
					<trkpt lat="43.757640" lon="4.874860">
						<ele>260</ele>
						<time>2024-11-14T23:11:04Z</time>
					</trkpt>
					<trkpt lat="43.757580" lon="4.874820">
						<ele>260</ele>
						<time>2024-11-14T23:11:13Z</time>
					</trkpt>
					<trkpt lat="43.757490" lon="4.874840">
						<ele>259</ele>
						<time>2024-11-14T23:11:26Z</time>
					</trkpt>
					<trkpt lat="43.757420" lon="4.874790">
						<ele>259</ele>
						<time>2024-11-14T23:11:36Z</time>
					</trkpt>
					<trkpt lat="43.757450" lon="4.874790">
						<ele>259</ele>
						<time>2024-11-14T23:11:40Z</time>
					</trkpt>
					<trkpt lat="43.757430" lon="4.874870">
						<ele>259</ele>
						<time>2024-11-14T23:11:48Z</time>
					</trkpt>
					<trkpt lat="43.757250" lon="4.875250">
						<ele>256</ele>
						<time>2024-11-14T23:12:32Z</time>
					</trkpt>
					<trkpt lat="43.757020" lon="4.875960">
						<ele>253</ele>
						<time>2024-11-14T23:13:47Z</time>
					</trkpt>
					<trkpt lat="43.756680" lon="4.876610">
						<ele>250</ele>
						<time>2024-11-14T23:15:04Z</time>
					</trkpt>
					<trkpt lat="43.756670" lon="4.876980">
						<ele>252</ele>
						<time>2024-11-14T23:15:40Z</time>
					</trkpt>
					<trkpt lat="43.756630" lon="4.877080">
						<ele>252</ele>
						<time>2024-11-14T23:15:51Z</time>
					</trkpt>
					<trkpt lat="43.756120" lon="4.877320">
						<ele>252</ele>
						<time>2024-11-14T23:17:03Z</time>
					</trkpt>
					<trkpt lat="43.756030" lon="4.877330">
						<ele>251</ele>
						<time>2024-11-14T23:17:15Z</time>
					</trkpt>
					<trkpt lat="43.755740" lon="4.877230">
						<ele>250</ele>
						<time>2024-11-14T23:17:55Z</time>
					</trkpt>
					<trkpt lat="43.755650" lon="4.877240">
						<ele>249</ele>
						<time>2024-11-14T23:18:07Z</time>
					</trkpt>
					<trkpt lat="43.755500" lon="4.877370">
						<ele>250</ele>
						<time>2024-11-14T23:18:31Z</time>
					</trkpt>
					<trkpt lat="43.755380" lon="4.878000">
						<ele>257</ele>
						<time>2024-11-14T23:19:33Z</time>
					</trkpt>
					<trkpt lat="43.755450" lon="4.878790">
						<ele>265</ele>
						<time>2024-11-14T23:20:50Z</time>
					</trkpt>
					<trkpt lat="43.755420" lon="4.879050">
						<ele>266</ele>
						<time>2024-11-14T23:21:15Z</time>
					</trkpt>
					<trkpt lat="43.755350" lon="4.879050">
						<ele>266</ele>
						<time>2024-11-14T23:21:25Z</time>
					</trkpt>
					<trkpt lat="43.755300" lon="4.878970">
						<ele>265</ele>
						<time>2024-11-14T23:21:35Z</time>
					</trkpt>
					<trkpt lat="43.754830" lon="4.877840">
						<ele>252</ele>
						<time>2024-11-14T23:23:41Z</time>
					</trkpt>
					<trkpt lat="43.754660" lon="4.877800">
						<ele>251</ele>
						<time>2024-11-14T23:24:04Z</time>
					</trkpt>
					<trkpt lat="43.754590" lon="4.877860">
						<ele>252</ele>
						<time>2024-11-14T23:24:15Z</time>
					</trkpt>
					<trkpt lat="43.754540" lon="4.878220">
						<ele>255</ele>
						<time>2024-11-14T23:24:50Z</time>
					</trkpt>
					<trkpt lat="43.754550" lon="4.878990">
						<ele>261</ele>
						<time>2024-11-14T23:26:04Z</time>
					</trkpt>
					<trkpt lat="43.754430" lon="4.879340">
						<ele>263</ele>
						<time>2024-11-14T23:26:42Z</time>
					</trkpt>
					<trkpt lat="43.754310" lon="4.880000">
						<ele>270</ele>
						<time>2024-11-14T23:27:47Z</time>
					</trkpt>
					<trkpt lat="43.754210" lon="4.880200">
						<ele>273</ele>
						<time>2024-11-14T23:28:11Z</time>
					</trkpt>
					<trkpt lat="43.754040" lon="4.880300">
						<ele>275</ele>
						<time>2024-11-14T23:28:35Z</time>
					</trkpt>
					<trkpt lat="43.753910" lon="4.880460">
						<ele>279</ele>
						<time>2024-11-14T23:28:58Z</time>
					</trkpt>
					<trkpt lat="43.753820" lon="4.880960">
						<ele>288</ele>
						<time>2024-11-14T23:29:48Z</time>
					</trkpt>
					<trkpt lat="43.753750" lon="4.881030">
						<ele>289</ele>
						<time>2024-11-14T23:30:00Z</time>
					</trkpt>
					<trkpt lat="43.753680" lon="4.881000">
						<ele>289</ele>
						<time>2024-11-14T23:30:09Z</time>
					</trkpt>
					<trkpt lat="43.753520" lon="4.880720">
						<ele>285</ele>
						<time>2024-11-14T23:30:44Z</time>
					</trkpt>
					<trkpt lat="43.753370" lon="4.879970">
						<ele>276</ele>
						<time>2024-11-14T23:31:59Z</time>
					</trkpt>
					<trkpt lat="43.753310" lon="4.879890">
						<ele>276</ele>
						<time>2024-11-14T23:32:10Z</time>
					</trkpt>
					<trkpt lat="43.753030" lon="4.879810">
						<ele>273</ele>
						<time>2024-11-14T23:32:48Z</time>
					</trkpt>
					<trkpt lat="43.752940" lon="4.879820">
						<ele>273</ele>
						<time>2024-11-14T23:33:00Z</time>
					</trkpt>
					<trkpt lat="43.752680" lon="4.879690">
						<ele>269</ele>
						<time>2024-11-14T23:33:37Z</time>
					</trkpt>
					<trkpt lat="43.752590" lon="4.879710">
						<ele>269</ele>
						<time>2024-11-14T23:33:49Z</time>
					</trkpt>
					<trkpt lat="43.752320" lon="4.880060">
						<ele>274</ele>
						<time>2024-11-14T23:34:39Z</time>
					</trkpt>
					<trkpt lat="43.752230" lon="4.880540">
						<ele>282</ele>
						<time>2024-11-14T23:35:26Z</time>
					</trkpt>
					<trkpt lat="43.752120" lon="4.880720">
						<ele>285</ele>
						<time>2024-11-14T23:35:49Z</time>
					</trkpt>
					<trkpt lat="43.752030" lon="4.880750">
						<ele>284</ele>
						<time>2024-11-14T23:36:02Z</time>
					</trkpt>
					<trkpt lat="43.751940" lon="4.880720">
						<ele>283</ele>
						<time>2024-11-14T23:36:14Z</time>
					</trkpt>
					<trkpt lat="43.751640" lon="4.880450">
						<ele>275</ele>
						<time>2024-11-14T23:37:02Z</time>
					</trkpt>
					<trkpt lat="43.751220" lon="4.880170">
						<ele>272</ele>
						<time>2024-11-14T23:38:04Z</time>
					</trkpt>
					<trkpt lat="43.751130" lon="4.880180">
						<ele>272</ele>
						<time>2024-11-14T23:38:16Z</time>
					</trkpt>
					<trkpt lat="43.750880" lon="4.880310">
						<ele>273</ele>
						<time>2024-11-14T23:38:52Z</time>
					</trkpt>
					<trkpt lat="43.750550" lon="4.880540">
						<ele>271</ele>
						<time>2024-11-14T23:39:41Z</time>
					</trkpt>
					<trkpt lat="43.750490" lon="4.880640">
						<ele>270</ele>
						<time>2024-11-14T23:39:53Z</time>
					</trkpt>
					<trkpt lat="43.750520" lon="4.880870">
						<ele>271</ele>
						<time>2024-11-14T23:40:16Z</time>
					</trkpt>
					<trkpt lat="43.750940" lon="4.881340">
						<ele>274</ele>
						<time>2024-11-14T23:41:28Z</time>
					</trkpt>
					<trkpt lat="43.751200" lon="4.881520">
						<ele>277</ele>
						<time>2024-11-14T23:42:07Z</time>
					</trkpt>
					<trkpt lat="43.751560" lon="4.881680">
						<ele>284</ele>
						<time>2024-11-14T23:42:57Z</time>
					</trkpt>
					<trkpt lat="43.751570" lon="4.881780">
						<ele>285</ele>
						<time>2024-11-14T23:43:07Z</time>
					</trkpt>
					<trkpt lat="43.751440" lon="4.881910">
						<ele>283</ele>
						<time>2024-11-14T23:43:28Z</time>
					</trkpt>
					<trkpt lat="43.751070" lon="4.882050">
						<ele>278</ele>
						<time>2024-11-14T23:44:20Z</time>
					</trkpt>
					<trkpt lat="43.750840" lon="4.882290">
						<ele>277</ele>
						<time>2024-11-14T23:44:58Z</time>
					</trkpt>
					<trkpt lat="43.750750" lon="4.882330">
						<ele>277</ele>
						<time>2024-11-14T23:45:11Z</time>
					</trkpt>
					<trkpt lat="43.750670" lon="4.882310">
						<ele>276</ele>
						<time>2024-11-14T23:45:21Z</time>
					</trkpt>
					<trkpt lat="43.750450" lon="4.882120">
						<ele>272</ele>
						<time>2024-11-14T23:45:56Z</time>
					</trkpt>
					<trkpt lat="43.750060" lon="4.882120">
						<ele>268</ele>
						<time>2024-11-14T23:46:48Z</time>
					</trkpt>
					<trkpt lat="43.749880" lon="4.882200">
						<ele>266</ele>
						<time>2024-11-14T23:47:13Z</time>
					</trkpt>
					<trkpt lat="43.749580" lon="4.882520">
						<ele>264</ele>
						<time>2024-11-14T23:48:04Z</time>
					</trkpt>
					<trkpt lat="43.749290" lon="4.883190">
						<ele>262</ele>
						<time>2024-11-14T23:49:19Z</time>
					</trkpt>
					<trkpt lat="43.749100" lon="4.883490">
						<ele>259</ele>
						<time>2024-11-14T23:49:58Z</time>
					</trkpt>
					<trkpt lat="43.749080" lon="4.883620">
						<ele>258</ele>
						<time>2024-11-14T23:50:10Z</time>
					</trkpt>
					<trkpt lat="43.749150" lon="4.883860">
						<ele>258</ele>
						<time>2024-11-14T23:50:35Z</time>
					</trkpt>
					<trkpt lat="43.749270" lon="4.884040">
						<ele>259</ele>
						<time>2024-11-14T23:50:59Z</time>
					</trkpt>
					<trkpt lat="43.749350" lon="4.884280">
						<ele>258</ele>
						<time>2024-11-14T23:51:24Z</time>
					</trkpt>
					<trkpt lat="43.749290" lon="4.885030">
						<ele>249</ele>
						<time>2024-11-14T23:52:37Z</time>
					</trkpt>
					<trkpt lat="43.749310" lon="4.885160">
						<ele>248</ele>
						<time>2024-11-14T23:52:50Z</time>
					</trkpt>
					<trkpt lat="43.749510" lon="4.885580">
						<ele>248</ele>
						<time>2024-11-14T23:53:38Z</time>
					</trkpt>
					<trkpt lat="43.749530" lon="4.885700">
						<ele>248</ele>
						<time>2024-11-14T23:53:50Z</time>
					</trkpt>
					<trkpt lat="43.749420" lon="4.886040">
						<ele>248</ele>
						<time>2024-11-14T23:54:26Z</time>
					</trkpt>
					<trkpt lat="43.749100" lon="4.886540">
						<ele>248</ele>
						<time>2024-11-14T23:55:31Z</time>
					</trkpt>
					<trkpt lat="43.748990" lon="4.886890">
						<ele>248</ele>
						<time>2024-11-14T23:56:07Z</time>
					</trkpt>
					<trkpt lat="43.749060" lon="4.887260">
						<ele>248</ele>
						<time>2024-11-14T23:56:44Z</time>
					</trkpt>
					<trkpt lat="43.749210" lon="4.887590">
						<ele>247</ele>
						<time>2024-11-14T23:57:22Z</time>
					</trkpt>
					<trkpt lat="43.749410" lon="4.888450">
						<ele>239</ele>
						<time>2024-11-14T23:58:49Z</time>
					</trkpt>
					<trkpt lat="43.749550" lon="4.889080">
						<ele>233</ele>
						<time>2024-11-14T23:59:53Z</time>
					</trkpt>
					<trkpt lat="43.749630" lon="4.889710">
						<ele>225</ele>
						<time>2024-11-15T00:00:54Z</time>
					</trkpt>
					<trkpt lat="43.749760" lon="4.890070">
						<ele>223</ele>
						<time>2024-11-15T00:01:33Z</time>
					</trkpt>
					<trkpt lat="43.749920" lon="4.890370">
						<ele>224</ele>
						<time>2024-11-15T00:02:09Z</time>
					</trkpt>
					<trkpt lat="43.749920" lon="4.890490">
						<ele>224</ele>
						<time>2024-11-15T00:02:21Z</time>
					</trkpt>
					<trkpt lat="43.749720" lon="4.890720">
						<ele>222</ele>
						<time>2024-11-15T00:02:55Z</time>
					</trkpt>
					<trkpt lat="43.749370" lon="4.890860">
						<ele>220</ele>
						<time>2024-11-15T00:03:44Z</time>
					</trkpt>
					<trkpt lat="43.749180" lon="4.890810">
						<ele>218</ele>
						<time>2024-11-15T00:04:10Z</time>
					</trkpt>
					<trkpt lat="43.748950" lon="4.890580">
						<ele>217</ele>
						<time>2024-11-15T00:04:47Z</time>
					</trkpt>
					<trkpt lat="43.748770" lon="4.890550">
						<ele>217</ele>
						<time>2024-11-15T00:05:12Z</time>
					</trkpt>
					<trkpt lat="43.748490" lon="4.890570">
						<ele>216</ele>
						<time>2024-11-15T00:05:49Z</time>
					</trkpt>
					<trkpt lat="43.748300" lon="4.890520">
						<ele>215</ele>
						<time>2024-11-15T00:06:15Z</time>
					</trkpt>
					<trkpt lat="43.748030" lon="4.890620">
						<ele>214</ele>
						<time>2024-11-15T00:06:52Z</time>
					</trkpt>
					<trkpt lat="43.747780" lon="4.890840">
						<ele>214</ele>
						<time>2024-11-15T00:07:32Z</time>
					</trkpt>
					<trkpt lat="43.747650" lon="4.891040">
						<ele>215</ele>
						<time>2024-11-15T00:07:58Z</time>
					</trkpt>
					<trkpt lat="43.747580" lon="4.891410">
						<ele>217</ele>
						<time>2024-11-15T00:08:35Z</time>
					</trkpt>
					<trkpt lat="43.747590" lon="4.891670">
						<ele>219</ele>
						<time>2024-11-15T00:09:00Z</time>
					</trkpt>
					<trkpt lat="43.747770" lon="4.892270">
						<ele>223</ele>
						<time>2024-11-15T00:10:02Z</time>
					</trkpt>
					<trkpt lat="43.747720" lon="4.892510">
						<ele>223</ele>
						<time>2024-11-15T00:10:26Z</time>
					</trkpt>
					<trkpt lat="43.747570" lon="4.892630">
						<ele>222</ele>
						<time>2024-11-15T00:10:49Z</time>
					</trkpt>
					<trkpt lat="43.747390" lon="4.892610">
						<ele>220</ele>
						<time>2024-11-15T00:11:14Z</time>
					</trkpt>
					<trkpt lat="43.747290" lon="4.892640">
						<ele>220</ele>
						<time>2024-11-15T00:11:27Z</time>
					</trkpt>
					<trkpt lat="43.747060" lon="4.892860">
						<ele>221</ele>
						<time>2024-11-15T00:12:05Z</time>
					</trkpt>
					<trkpt lat="43.746560" lon="4.893210">
						<ele>223</ele>
						<time>2024-11-15T00:13:19Z</time>
					</trkpt>
					<trkpt lat="43.746280" lon="4.893560">
						<ele>225</ele>
						<time>2024-11-15T00:14:10Z</time>
					</trkpt>
					<trkpt lat="43.745940" lon="4.893840">
						<ele>225</ele>
						<time>2024-11-15T00:15:02Z</time>
					</trkpt>
					<trkpt lat="43.745660" lon="4.894200">
						<ele>224</ele>
						<time>2024-11-15T00:15:53Z</time>
					</trkpt>
					<trkpt lat="43.745410" lon="4.894760">
						<ele>224</ele>
						<time>2024-11-15T00:16:57Z</time>
					</trkpt>
					<trkpt lat="43.745300" lon="4.895510">
						<ele>224</ele>
						<time>2024-11-15T00:18:11Z</time>
					</trkpt>
					<trkpt lat="43.745210" lon="4.895860">
						<ele>223</ele>
						<time>2024-11-15T00:18:46Z</time>
					</trkpt>
					<trkpt lat="43.745020" lon="4.896130">
						<ele>222</ele>
						<time>2024-11-15T00:19:23Z</time>
					</trkpt>
					<trkpt lat="43.744770" lon="4.896290">
						<ele>222</ele>
						<time>2024-11-15T00:20:00Z</time>
					</trkpt>
					<trkpt lat="43.744650" lon="4.896490">
						<ele>223</ele>
						<time>2024-11-15T00:20:25Z</time>
					</trkpt>
					<trkpt lat="43.744440" lon="4.897100">
						<ele>227</ele>
						<time>2024-11-15T00:21:30Z</time>
					</trkpt>
					<trkpt lat="43.744210" lon="4.897500">
						<ele>228</ele>
						<time>2024-11-15T00:22:19Z</time>
					</trkpt>
					<trkpt lat="43.744080" lon="4.898110">
						<ele>234</ele>
						<time>2024-11-15T00:23:20Z</time>
					</trkpt>
					<trkpt lat="43.744020" lon="4.898630">
						<ele>238</ele>
						<time>2024-11-15T00:24:11Z</time>
					</trkpt>
					<trkpt lat="43.744110" lon="4.899700">
						<ele>237</ele>
						<time>2024-11-15T00:25:55Z</time>
					</trkpt>
					<trkpt lat="43.744060" lon="4.900070">
						<ele>236</ele>
						<time>2024-11-15T00:26:31Z</time>
					</trkpt>
					<trkpt lat="43.744060" lon="4.900470">
						<ele>234</ele>
						<time>2024-11-15T00:27:10Z</time>
					</trkpt>
					<trkpt lat="43.744150" lon="4.900840">
						<ele>231</ele>
						<time>2024-11-15T00:27:48Z</time>
					</trkpt>
					<trkpt lat="43.744110" lon="4.901220">
						<ele>230</ele>
						<time>2024-11-15T00:28:25Z</time>
					</trkpt>
					<trkpt lat="43.744020" lon="4.901440">
						<ele>230</ele>
						<time>2024-11-15T00:28:49Z</time>
					</trkpt>
					<trkpt lat="43.743920" lon="4.901950">
						<ele>228</ele>
						<time>2024-11-15T00:29:40Z</time>
					</trkpt>
					<trkpt lat="43.743860" lon="4.902050">
						<ele>227</ele>
						<time>2024-11-15T00:29:52Z</time>
					</trkpt>
					<trkpt lat="43.743790" lon="4.902790">
						<ele>222</ele>
						<time>2024-11-15T00:31:04Z</time>
					</trkpt>
					<trkpt lat="43.743870" lon="4.903680">
						<ele>217</ele>
						<time>2024-11-15T00:32:31Z</time>
					</trkpt>
					<trkpt lat="43.744050" lon="4.904420">
						<ele>214</ele>
						<time>2024-11-15T00:33:46Z</time>
					</trkpt>
					<trkpt lat="43.744040" lon="4.904540">
						<ele>214</ele>
						<time>2024-11-15T00:33:58Z</time>
					</trkpt>
					<trkpt lat="43.743840" lon="4.904830">
						<ele>214</ele>
						<time>2024-11-15T00:34:36Z</time>
					</trkpt>
					<trkpt lat="43.743700" lon="4.905460">
						<ele>216</ele>
						<time>2024-11-15T00:35:40Z</time>
					</trkpt>
					<trkpt lat="43.743720" lon="4.905710">
						<ele>217</ele>
						<time>2024-11-15T00:36:04Z</time>
					</trkpt>
					<trkpt lat="43.743800" lon="4.905950">
						<ele>218</ele>
						<time>2024-11-15T00:36:30Z</time>
					</trkpt>
					<trkpt lat="43.743710" lon="4.906440">
						<ele>218</ele>
						<time>2024-11-15T00:37:18Z</time>
					</trkpt>
					<trkpt lat="43.743740" lon="4.907080">
						<ele>216</ele>
						<time>2024-11-15T00:38:20Z</time>
					</trkpt>
					<trkpt lat="43.743620" lon="4.907570">
						<ele>215</ele>
						<time>2024-11-15T00:39:10Z</time>
					</trkpt>
					<trkpt lat="43.743520" lon="4.909380">
						<ele>203</ele>
						<time>2024-11-15T00:42:05Z</time>
					</trkpt>
					<trkpt lat="43.743560" lon="4.909770">
						<ele>202</ele>
						<time>2024-11-15T00:42:43Z</time>
					</trkpt>
					<trkpt lat="43.743700" lon="4.910270">
						<ele>199</ele>
						<time>2024-11-15T00:43:35Z</time>
					</trkpt>
					<trkpt lat="43.743640" lon="4.910670">
						<ele>198</ele>
						<time>2024-11-15T00:44:14Z</time>
					</trkpt>
					<trkpt lat="43.743640" lon="4.911600">
						<ele>195</ele>
						<time>2024-11-15T00:45:44Z</time>
					</trkpt>
					<trkpt lat="43.743750" lon="4.911960">
						<ele>193</ele>
						<time>2024-11-15T00:46:21Z</time>
					</trkpt>
					<trkpt lat="43.743940" lon="4.912970">
						<ele>188</ele>
						<time>2024-11-15T00:48:02Z</time>
					</trkpt>
					<trkpt lat="43.743940" lon="4.913720">
						<ele>186</ele>
						<time>2024-11-15T00:49:14Z</time>
					</trkpt>
					<trkpt lat="43.744000" lon="4.914250">
						<ele>184</ele>
						<time>2024-11-15T00:50:06Z</time>
					</trkpt>
					<trkpt lat="43.743960" lon="4.915400">
						<ele>180</ele>
						<time>2024-11-15T00:51:57Z</time>
					</trkpt>
					<trkpt lat="43.744030" lon="4.915800">
						<ele>177</ele>
						<time>2024-11-15T00:52:37Z</time>
					</trkpt>
					<trkpt lat="43.744010" lon="4.916330">
						<ele>176</ele>
						<time>2024-11-15T00:53:28Z</time>
					</trkpt>
					<trkpt lat="43.744130" lon="4.916950">
						<ele>171</ele>
						<time>2024-11-15T00:54:30Z</time>
					</trkpt>
					<trkpt lat="43.744130" lon="4.917640">
						<ele>170</ele>
						<time>2024-11-15T00:55:36Z</time>
					</trkpt>
					<trkpt lat="43.744200" lon="4.917880">
						<ele>168</ele>
						<time>2024-11-15T00:56:01Z</time>
					</trkpt>
					<trkpt lat="43.744100" lon="4.918650">
						<ele>164</ele>
						<time>2024-11-15T00:57:17Z</time>
					</trkpt>
					<trkpt lat="43.743840" lon="4.919320">
						<ele>162</ele>
						<time>2024-11-15T00:58:30Z</time>
					</trkpt>
					<trkpt lat="43.743800" lon="4.919840">
						<ele>158</ele>
						<time>2024-11-15T00:59:20Z</time>
					</trkpt>
					<trkpt lat="43.743990" lon="4.920270">
						<ele>156</ele>
						<time>2024-11-15T01:00:09Z</time>
					</trkpt>
					<trkpt lat="43.744050" lon="4.920360">
						<ele>155</ele>
						<time>2024-11-15T01:00:21Z</time>
					</trkpt>
					<trkpt lat="43.744220" lon="4.920470">
						<ele>154</ele>
						<time>2024-11-15T01:00:46Z</time>
					</trkpt>
					<trkpt lat="43.744250" lon="4.920580">
						<ele>154</ele>
						<time>2024-11-15T01:00:57Z</time>
					</trkpt>
					<trkpt lat="43.744320" lon="4.920650">
						<ele>153</ele>
						<time>2024-11-15T01:01:09Z</time>
					</trkpt>
					<trkpt lat="43.744690" lon="4.920750">
						<ele>152</ele>
						<time>2024-11-15T01:01:59Z</time>
					</trkpt>
					<trkpt lat="43.746280" lon="4.920930">
						<ele>150</ele>
						<time>2024-11-15T01:05:32Z</time>
					</trkpt>
					<trkpt lat="43.746450" lon="4.921030">
						<ele>151</ele>
						<time>2024-11-15T01:05:57Z</time>
					</trkpt>
					<trkpt lat="43.746600" lon="4.921190">
						<ele>152</ele>
						<time>2024-11-15T01:06:22Z</time>
					</trkpt>
					<trkpt lat="43.746870" lon="4.921290">
						<ele>154</ele>
						<time>2024-11-15T01:06:59Z</time>
					</trkpt>
					<trkpt lat="43.747070" lon="4.921560">
						<ele>156</ele>
						<time>2024-11-15T01:07:36Z</time>
					</trkpt>
					<trkpt lat="43.747110" lon="4.921800">
						<ele>158</ele>
						<time>2024-11-15T01:08:00Z</time>
					</trkpt>
					<trkpt lat="43.747060" lon="4.923220">
						<ele>171</ele>
						<time>2024-11-15T01:10:17Z</time>
					</trkpt>
					<trkpt lat="43.746900" lon="4.923710">
						<ele>174</ele>
						<time>2024-11-15T01:11:09Z</time>
					</trkpt>
					<trkpt lat="43.746460" lon="4.924210">
						<ele>175</ele>
						<time>2024-11-15T01:12:25Z</time>
					</trkpt>
					<trkpt lat="43.746340" lon="4.924570">
						<ele>177</ele>
						<time>2024-11-15T01:13:03Z</time>
					</trkpt>
					<trkpt lat="43.746290" lon="4.924940">
						<ele>179</ele>
						<time>2024-11-15T01:13:40Z</time>
					</trkpt>
					<trkpt lat="43.746470" lon="4.925370">
						<ele>185</ele>
						<time>2024-11-15T01:14:28Z</time>
					</trkpt>
					<trkpt lat="43.746470" lon="4.925500">
						<ele>187</ele>
						<time>2024-11-15T01:14:40Z</time>
					</trkpt>
					<trkpt lat="43.746430" lon="4.925610">
						<ele>188</ele>
						<time>2024-11-15T01:14:52Z</time>
					</trkpt>
					<trkpt lat="43.746170" lon="4.925970">
						<ele>190</ele>
						<time>2024-11-15T01:15:41Z</time>
					</trkpt>
					<trkpt lat="43.746020" lon="4.926300">
						<ele>192</ele>
						<time>2024-11-15T01:16:19Z</time>
					</trkpt>
					<trkpt lat="43.745910" lon="4.926800">
						<ele>197</ele>
						<time>2024-11-15T01:17:09Z</time>
					</trkpt>
					<trkpt lat="43.745960" lon="4.927170">
						<ele>199</ele>
						<time>2024-11-15T01:17:45Z</time>
					</trkpt>
					<trkpt lat="43.745940" lon="4.927630">
						<ele>201</ele>
						<time>2024-11-15T01:18:30Z</time>
					</trkpt>
					<trkpt lat="43.745990" lon="4.928020">
						<ele>201</ele>
						<time>2024-11-15T01:19:08Z</time>
					</trkpt>
					<trkpt lat="43.745900" lon="4.928170">
						<ele>201</ele>
						<time>2024-11-15T01:19:27Z</time>
					</trkpt>
					<trkpt lat="43.745230" lon="4.928610">
						<ele>204</ele>
						<time>2024-11-15T01:21:06Z</time>
					</trkpt>
					<trkpt lat="43.745020" lon="4.929190">
						<ele>208</ele>
						<time>2024-11-15T01:22:08Z</time>
					</trkpt>
					<trkpt lat="43.744900" lon="4.929390">
						<ele>210</ele>
						<time>2024-11-15T01:22:33Z</time>
					</trkpt>
					<trkpt lat="43.744760" lon="4.929570">
						<ele>211</ele>
						<time>2024-11-15T01:22:59Z</time>
					</trkpt>
					<trkpt lat="43.744220" lon="4.930090">
						<ele>209</ele>
						<time>2024-11-15T01:24:27Z</time>
					</trkpt>
					<trkpt lat="43.744160" lon="4.930320">
						<ele>208</ele>
						<time>2024-11-15T01:24:50Z</time>
					</trkpt>
					<trkpt lat="43.744260" lon="4.930510">
						<ele>208</ele>
						<time>2024-11-15T01:25:13Z</time>
					</trkpt>
					<trkpt lat="43.744420" lon="4.930600">
						<ele>210</ele>
						<time>2024-11-15T01:25:36Z</time>
					</trkpt>
					<trkpt lat="43.745550" lon="4.930940">
						<ele>215</ele>
						<time>2024-11-15T01:28:10Z</time>
					</trkpt>
					<trkpt lat="43.745690" lon="4.931100">
						<ele>215</ele>
						<time>2024-11-15T01:28:34Z</time>
					</trkpt>
					<trkpt lat="43.745890" lon="4.931690">
						<ele>216</ele>
						<time>2024-11-15T01:29:37Z</time>
					</trkpt>
					<trkpt lat="43.746050" lon="4.931810">
						<ele>217</ele>
						<time>2024-11-15T01:30:01Z</time>
					</trkpt>
					<trkpt lat="43.746160" lon="4.932000">
						<ele>219</ele>
						<time>2024-11-15T01:30:25Z</time>
					</trkpt>
					<trkpt lat="43.746090" lon="4.932900">
						<ele>221</ele>
						<time>2024-11-15T01:31:52Z</time>
					</trkpt>
					<trkpt lat="43.745980" lon="4.933270">
						<ele>220</ele>
						<time>2024-11-15T01:32:31Z</time>
					</trkpt>
					<trkpt lat="43.745950" lon="4.934460">
						<ele>221</ele>
						<time>2024-11-15T01:34:26Z</time>
					</trkpt>
					<trkpt lat="43.745950" lon="4.934730">
						<ele>221</ele>
						<time>2024-11-15T01:34:52Z</time>
					</trkpt>
					<trkpt lat="43.746090" lon="4.935600">
						<ele>222</ele>
						<time>2024-11-15T01:36:18Z</time>
					</trkpt>
					<trkpt lat="43.746080" lon="4.936900">
						<ele>218</ele>
						<time>2024-11-15T01:38:23Z</time>
					</trkpt>
					<trkpt lat="43.745990" lon="4.937540">
						<ele>216</ele>
						<time>2024-11-15T01:39:26Z</time>
					</trkpt>
					<trkpt lat="43.745630" lon="4.938640">
						<ele>212</ele>
						<time>2024-11-15T01:41:22Z</time>
					</trkpt>
					<trkpt lat="43.745480" lon="4.939250">
						<ele>209</ele>
						<time>2024-11-15T01:42:24Z</time>
					</trkpt>
					<trkpt lat="43.745540" lon="4.939480">
						<ele>208</ele>
						<time>2024-11-15T01:42:48Z</time>
					</trkpt>
					<trkpt lat="43.745680" lon="4.939630">
						<ele>207</ele>
						<time>2024-11-15T01:43:11Z</time>
					</trkpt>
					<trkpt lat="43.745770" lon="4.939630">
						<ele>207</ele>
						<time>2024-11-15T01:43:23Z</time>
					</trkpt>
					<trkpt lat="43.745850" lon="4.939580">
						<ele>207</ele>
						<time>2024-11-15T01:43:35Z</time>
					</trkpt>
					<trkpt lat="43.746180" lon="4.939100">
						<ele>206</ele>
						<time>2024-11-15T01:44:39Z</time>
					</trkpt>
					<trkpt lat="43.746410" lon="4.938860">
						<ele>205</ele>
						<time>2024-11-15T01:45:17Z</time>
					</trkpt>
					<trkpt lat="43.747120" lon="4.937150">
						<ele>208</ele>
						<time>2024-11-15T01:48:28Z</time>
					</trkpt>
					<trkpt lat="43.747460" lon="4.936060">
						<ele>205</ele>
						<time>2024-11-15T01:50:22Z</time>
					</trkpt>
					<trkpt lat="43.747630" lon="4.935300">
						<ele>204</ele>
						<time>2024-11-15T01:51:39Z</time>
					</trkpt>
					<trkpt lat="43.747770" lon="4.934260">
						<ele>199</ele>
						<time>2024-11-15T01:53:21Z</time>
					</trkpt>
					<trkpt lat="43.747790" lon="4.933730">
						<ele>196</ele>
						<time>2024-11-15T01:54:12Z</time>
					</trkpt>
					<trkpt lat="43.747920" lon="4.933380">
						<ele>191</ele>
						<time>2024-11-15T01:54:50Z</time>
					</trkpt>
					<trkpt lat="43.747980" lon="4.933300">
						<ele>189</ele>
						<time>2024-11-15T01:55:01Z</time>
					</trkpt>
					<trkpt lat="43.748150" lon="4.933260">
						<ele>184</ele>
						<time>2024-11-15T01:55:24Z</time>
					</trkpt>
					<trkpt lat="43.749110" lon="4.933390">
						<ele>166</ele>
						<time>2024-11-15T01:57:33Z</time>
					</trkpt>
					<trkpt lat="43.749640" lon="4.933100">
						<ele>161</ele>
						<time>2024-11-15T01:58:49Z</time>
					</trkpt>
					<trkpt lat="43.749880" lon="4.932850">
						<ele>158</ele>
						<time>2024-11-15T01:59:29Z</time>
					</trkpt>
					<trkpt lat="43.750060" lon="4.932540">
						<ele>156</ele>
						<time>2024-11-15T02:00:07Z</time>
					</trkpt>
					<trkpt lat="43.750380" lon="4.931720">
						<ele>155</ele>
						<time>2024-11-15T02:01:37Z</time>
					</trkpt>
					<trkpt lat="43.750510" lon="4.931090">
						<ele>152</ele>
						<time>2024-11-15T02:02:40Z</time>
					</trkpt>
					<trkpt lat="43.750720" lon="4.930350">
						<ele>150</ele>
						<time>2024-11-15T02:03:57Z</time>
					</trkpt>
					<trkpt lat="43.750940" lon="4.929920">
						<ele>148</ele>
						<time>2024-11-15T02:04:48Z</time>
					</trkpt>
					<trkpt lat="43.751020" lon="4.929520">
						<ele>147</ele>
						<time>2024-11-15T02:05:28Z</time>
					</trkpt>
					<trkpt lat="43.751140" lon="4.928210">
						<ele>147</ele>
						<time>2024-11-15T02:07:35Z</time>
					</trkpt>
					<trkpt lat="43.751350" lon="4.927480">
						<ele>146</ele>
						<time>2024-11-15T02:08:51Z</time>
					</trkpt>
					<trkpt lat="43.751760" lon="4.926590">
						<ele>143</ele>
						<time>2024-11-15T02:10:32Z</time>
					</trkpt>
					<trkpt lat="43.751950" lon="4.926300">
						<ele>142</ele>
						<time>2024-11-15T02:11:10Z</time>
					</trkpt>
					<trkpt lat="43.752250" lon="4.925630">
						<ele>139</ele>
						<time>2024-11-15T02:12:26Z</time>
					</trkpt>
					<trkpt lat="43.752450" lon="4.925030">
						<ele>138</ele>
						<time>2024-11-15T02:13:30Z</time>
					</trkpt>
					<trkpt lat="43.752620" lon="4.924670">
						<ele>135</ele>
						<time>2024-11-15T02:14:11Z</time>
					</trkpt>
					<trkpt lat="43.752760" lon="4.924500">
						<ele>134</ele>
						<time>2024-11-15T02:14:36Z</time>
					</trkpt>
					<trkpt lat="43.752780" lon="4.924380">
						<ele>133</ele>
						<time>2024-11-15T02:14:48Z</time>
					</trkpt>
					<trkpt lat="43.752930" lon="4.924300">
						<ele>132</ele>
						<time>2024-11-15T02:15:09Z</time>
					</trkpt>
					<trkpt lat="43.753310" lon="4.924660">
						<ele>130</ele>
						<time>2024-11-15T02:16:11Z</time>
					</trkpt>
					<trkpt lat="43.753390" lon="4.924680">
						<ele>130</ele>
						<time>2024-11-15T02:16:22Z</time>
					</trkpt>
					<trkpt lat="43.753860" lon="4.924600">
						<ele>130</ele>
						<time>2024-11-15T02:17:25Z</time>
					</trkpt>
					<trkpt lat="43.754050" lon="4.924610">
						<ele>130</ele>
						<time>2024-11-15T02:17:50Z</time>
					</trkpt>
					<trkpt lat="43.754330" lon="4.924500">
						<ele>129</ele>
						<time>2024-11-15T02:18:29Z</time>
					</trkpt>
					<trkpt lat="43.754710" lon="4.924430">
						<ele>128</ele>
						<time>2024-11-15T02:19:20Z</time>
					</trkpt>
					<trkpt lat="43.755360" lon="4.924600">
						<ele>129</ele>
						<time>2024-11-15T02:20:49Z</time>
					</trkpt>
					<trkpt lat="43.756040" lon="4.924680">
						<ele>128</ele>
						<time>2024-11-15T02:22:20Z</time>
					</trkpt>
					<trkpt lat="43.756380" lon="4.924860">
						<ele>126</ele>
						<time>2024-11-15T02:23:08Z</time>
					</trkpt>
					<trkpt lat="43.756660" lon="4.924910">
						<ele>125</ele>
						<time>2024-11-15T02:23:46Z</time>
					</trkpt>
					<trkpt lat="43.756740" lon="4.924870">
						<ele>124</ele>
						<time>2024-11-15T02:23:57Z</time>
					</trkpt>
					<trkpt lat="43.757010" lon="4.924350">
						<ele>121</ele>
						<time>2024-11-15T02:24:59Z</time>
					</trkpt>
					</trkseg>
				</trk>
			</gpx>